CheckWX is a tool to help pilots better visualize weather data.  It is not intended as a substitute for an official pre-flight weather briefing.

04:01:41 UTC

EGKK METAR
London Gatwick Airport
London, United Kingdom
Current

12 mins ago

EGKK 250350Z 14008KT 110V170 9999 SCT015 SCT023 10/09 Q0995
Observed
Apr-25 @ 03:50 UTC
Wind
  • 140° at 8 KTS
Visibility
10,000+ meters
Flight Rules
VFR
Cloud Levels
  • Scattered at 1,500' AGL
  • Scattered at 2,300' AGL
Temperature
10°C / 50°F
Dewpoint
C / 48°F
Humidity
94%
Altimeter
29.38" Hg
Pressure
994.92 hPa
Previous

42 mins ago

EGKK 250320Z 13008KT 090V150 9999 FEW009 BKN013 10/09 Q0996
Observed
Apr-25 @ 03:20 UTC
Wind
  • 130° at 8 KTS
Visibility
10,000+ meters
Flight Rules
MVFR
Cloud Levels
  • Few at 900' AGL
  • Broken at 1,300' AGL
Temperature
10°C / 50°F
Dewpoint
C / 48°F
Humidity
94%
Altimeter
29.41" Hg
Pressure
995.92 hPa
Previous

1 hour ago

EGKK 250250Z 11008KT 9999 SCT012 BKN042 10/08 Q0996
Observed
Apr-25 @ 02:50 UTC
Wind
  • 110° at 8 KTS
Visibility
10,000+ meters
Flight Rules
VFR
Cloud Levels
  • Scattered at 1,200' AGL
  • Broken at 4,200' AGL
Temperature
10°C / 50°F
Dewpoint
C / 46°F
Humidity
88%
Altimeter
29.41" Hg
Pressure
995.92 hPa